Time;durP1;ratioP1;P1;durP2;ratioP2;P2;SDS_P1;SDS_P2;PMS_P1;PMS_P2;Temp;Humidity;BMP_temperature;BMP_pressure;BME280_temperature;BME280_humidity;BME280_pressure;Samples;Min_cycle;Max_cycle;Signal;HPM_P1;HPM_P2
2024/02/01 00:01:12;;;;;;;38.70;15.43;;;;;;;;;;5121995;28;20043;-63
2024/02/01 00:03:37;;;;;;;43.23;16.43;;;;;;;;;;5115560;28;20276;-63
2024/02/01 00:06:02;;;;;;;49.13;16.17;;;;;;;;;;5124380;28;20063;-62
2024/02/01 00:08:28;;;;;;;29.73;14.97;;;;;;;;;;5116953;28;20032;-62
2024/02/01 00:10:54;;;;;;;42.58;15.95;;;;;;;;;;5115595;28;20039;-62
2024/02/01 00:13:19;;;;;;;37.20;15.50;;;;;;;;;;5114870;28;20032;-63
2024/02/01 00:15:45;;;;;;;37.40;15.53;;;;;;;;;;5114162;28;20032;-63
2024/02/01 00:18:10;;;;;;;45.87;15.77;;;;;;;;;;5127155;28;20296;-63
2024/02/01 00:20:36;;;;;;;31.10;15.65;;;;;;;;;;5115962;28;20028;-64
2024/02/01 00:23:01;;;;;;;40.17;14.57;;;;;;;;;;5120388;28;20083;-64
2024/02/01 00:25:27;;;;;;;34.20;15.40;;;;;;;;;;5107602;28;20057;-64
2024/02/01 00:27:52;;;;;;;33.93;14.03;;;;;;;;;;5120923;28;20032;-63
2024/02/01 00:30:18;;;;;;;37.40;16.37;;;;;;;;;;5115313;28;20285;-64
2024/02/01 00:32:43;;;;;;;40.73;16.37;;;;;;;;;;5114656;28;20253;-63
2024/02/01 00:35:09;;;;;;;44.47;17.30;;;;;;;;;;5115287;28;20057;-64
2024/02/01 00:37:34;;;;;;;37.00;16.83;;;;;;;;;;5120870;28;20306;-63
2024/02/01 00:40:00;;;;;;;37.07;16.50;;;;;;;;;;5115117;28;20042;-63
2024/02/01 00:42:25;;;;;;;34.22;16.38;;;;;;;;;;5115293;28;20047;-64
2024/02/01 00:44:51;;;;;;;34.23;16.10;;;;;;;;;;5111993;28;20040;-63
2024/02/01 00:47:16;;;;;;;42.57;17.63;;;;;;;;;;5110582;28;20035;-63
2024/02/01 00:49:42;;;;;;;33.40;16.45;;;;;;;;;;5110134;28;20024;-63
2024/02/01 00:52:07;;;;;;;45.30;17.40;;;;;;;;;;5109904;28;20035;-64
2024/02/01 00:54:35;;;;;;;35.58;16.08;;;;;;;;;;5110855;28;20463;-62
2024/02/01 00:57:01;;;;;;;34.07;16.57;;;;;;;;;;5110376;28;20036;-63
2024/02/01 00:59:27;;;;;;;45.27;17.90;;;;;;;;;;5111318;28;20263;-63
2024/02/01 01:01:53;;;;;;;37.63;15.47;;;;;;;;;;5112674;28;20036;-63
2024/02/01 01:04:18;;;;;;;32.90;15.00;;;;;;;;;;5110140;28;20271;-63
2024/02/01 01:06:44;;;;;;;36.80;17.45;;;;;;;;;;5111884;28;20104;-64
2024/02/01 01:09:10;;;;;;;36.70;18.60;;;;;;;;;;5110184;28;20028;-63
2024/02/01 01:11:35;;;;;;;40.67;15.97;;;;;;;;;;5116845;28;20271;-64
2024/02/01 01:14:00;;;;;;;39.07;17.80;;;;;;;;;;5116076;28;20573;-63
2024/02/01 01:16:30;;;;;;;40.20;18.08;;;;;;;;;;5113317;28;20024;-64
2024/02/01 01:18:56;;;;;;;33.60;17.73;;;;;;;;;;5120312;28;20036;-63
2024/02/01 01:21:22;;;;;;;38.97;17.58;;;;;;;;;;5114644;28;20268;-62
2024/02/01 01:23:48;;;;;;;32.90;17.35;;;;;;;;;;5113217;28;20103;-63
2024/02/01 01:26:13;;;;;;;36.63;17.63;;;;;;;;;;5114496;28;20040;-63
2024/02/01 01:28:39;;;;;;;51.13;19.85;;;;;;;;;;5114254;28;20024;-63
2024/02/01 01:31:04;;;;;;;40.97;18.17;;;;;;;;;;5114519;28;20091;-63
2024/02/01 01:33:30;;;;;;;42.00;18.95;;;;;;;;;;5114769;28;20020;-64
2024/02/01 01:35:55;;;;;;;37.63;18.33;;;;;;;;;;5114423;28;20062;-62
2024/02/01 01:38:22;;;;;;;37.25;17.98;;;;;;;;;;5124359;28;20027;-63
2024/02/01 01:40:47;;;;;;;38.33;17.13;;;;;;;;;;5111798;28;20032;-63
2024/02/01 01:43:13;;;;;;;42.13;18.42;;;;;;;;;;5116748;28;20307;-64
2024/02/01 01:45:38;;;;;;;45.17;19.60;;;;;;;;;;5116857;28;20121;-63
2024/02/01 01:48:04;;;;;;;41.47;17.87;;;;;;;;;;5129613;28;20028;-63
2024/02/01 01:50:30;;;;;;;45.10;18.08;;;;;;;;;;5115452;28;20261;-63
2024/02/01 01:52:57;;;;;;;35.67;15.43;;;;;;;;;;5113801;28;20058;-63
2024/02/01 01:55:22;;;;;;;50.20;17.93;;;;;;;;;;5127935;28;20024;-63
2024/02/01 01:57:48;;;;;;;38.40;16.77;;;;;;;;;;5125299;28;20276;-62
2024/02/01 02:00:14;;;;;;;39.47;15.35;;;;;;;;;;5107614;28;20039;-63
2024/02/01 02:02:39;;;;;;;38.30;15.90;;;;;;;;;;5119874;28;20078;-63
2024/02/01 02:05:05;;;;;;;38.67;16.70;;;;;;;;;;5109686;28;20028;-63
2024/02/01 02:07:31;;;;;;;38.03;16.70;;;;;;;;;;5130742;28;20087;-62
2024/02/01 02:10:00;;;;;;;38.00;16.47;;;;;;;;;;5134229;28;20028;-63
2024/02/01 02:12:26;;;;;;;42.73;16.87;;;;;;;;;;5127368;28;20249;-63
2024/02/01 02:14:59;;;;;;;31.77;15.80;;;;;;;;;;5117686;28;20269;-63
2024/02/01 02:17:28;;;;;;;38.23;16.70;;;;;;;;;;5114234;28;20041;-63
2024/02/01 02:19:54;;;;;;;42.07;15.97;;;;;;;;;;5117957;28;20264;-62
2024/02/01 02:22:20;;;;;;;42.72;16.40;;;;;;;;;;5121060;28;20345;-63
2024/02/01 02:24:46;;;;;;;43.13;17.20;;;;;;;;;;5117683;28;20036;-63
2024/02/01 02:27:11;;;;;;;50.05;15.82;;;;;;;;;;5127366;28;20056;-63
2024/02/01 02:29:36;;;;;;;40.20;15.57;;;;;;;;;;5127056;28;20046;-62
2024/02/01 02:32:02;;;;;;;42.27;14.23;;;;;;;;;;5117327;28;20032;-63
2024/02/01 02:34:27;;;;;;;47.17;14.57;;;;;;;;;;5117493;28;20300;-64
2024/02/01 02:36:53;;;;;;;47.47;12.98;;;;;;;;;;5126514;28;20084;-63
2024/02/01 02:39:19;;;;;;;49.73;13.50;;;;;;;;;;5127923;28;20024;-63
2024/02/01 02:41:44;;;;;;;49.47;13.25;;;;;;;;;;5117267;28;20032;-63
2024/02/01 02:44:11;;;;;;;45.73;12.53;;;;;;;;;;5119502;28;20039;-62
2024/02/01 02:46:37;;;;;;;43.70;12.87;;;;;;;;;;5126835;28;20027;-63
2024/02/01 02:49:03;;;;;;;40.55;11.85;;;;;;;;;;5116970;28;20273;-63
2024/02/01 02:51:28;;;;;;;44.27;12.67;;;;;;;;;;5116902;28;20032;-63
2024/02/01 02:53:54;;;;;;;40.30;12.17;;;;;;;;;;5117091;28;20332;-62
2024/02/01 02:56:21;;;;;;;45.23;11.83;;;;;;;;;;5118203;28;20276;-63
2024/02/01 02:58:46;;;;;;;42.90;11.70;;;;;;;;;;5124530;28;20099;-62
2024/02/01 03:01:12;;;;;;;46.93;10.23;;;;;;;;;;5126125;28;20269;-62
2024/02/01 03:03:40;;;;;;;47.53;11.67;;;;;;;;;;5125301;28;20252;-63
2024/02/01 03:06:06;;;;;;;47.37;11.87;;;;;;;;;;5109652;28;20094;-63
2024/02/01 03:08:32;;;;;;;23.60;8.80;;;;;;;;;;5123972;28;20257;-63
2024/02/01 03:10:57;;;;;;;36.10;9.50;;;;;;;;;;5116243;28;20329;-62
2024/02/01 03:13:23;;;;;;;27.20;8.73;;;;;;;;;;5114692;28;20294;-62
2024/02/01 03:15:48;;;;;;;49.77;11.30;;;;;;;;;;5122824;28;20296;-62
2024/02/01 03:18:14;;;;;;;38.25;11.27;;;;;;;;;;5120970;28;20032;-63
2024/02/01 03:20:43;;;;;;;47.77;10.27;;;;;;;;;;5110941;28;20029;-62
2024/02/01 03:23:10;;;;;;;32.33;10.63;;;;;;;;;;5109202;28;20287;-62
2024/02/01 03:25:38;;;;;;;52.37;11.33;;;;;;;;;;5125127;28;20285;-61
2024/02/01 03:28:04;;;;;;;39.63;9.70;;;;;;;;;;5120156;28;20273;-62
2024/02/01 03:30:31;;;;;;;52.80;11.37;;;;;;;;;;5115245;28;20260;-63
2024/02/01 03:32:57;;;;;;;38.55;8.02;;;;;;;;;;5116407;28;20328;-62
2024/02/01 03:35:23;;;;;;;54.22;10.88;;;;;;;;;;5116378;28;20087;-62
2024/02/01 03:37:49;;;;;;;42.20;10.98;;;;;;;;;;5123624;28;20035;-62
2024/02/01 03:40:18;;;;;;;55.30;10.18;;;;;;;;;;5116857;28;20036;-62
2024/02/01 03:42:47;;;;;;;51.83;9.87;;;;;;;;;;5125396;28;20028;-62
2024/02/01 03:45:13;;;;;;;45.93;9.20;;;;;;;;;;5116928;28;20312;-62
2024/02/01 03:47:39;;;;;;;48.13;9.60;;;;;;;;;;5125752;28;20275;-62
2024/02/01 03:50:08;;;;;;;46.53;9.57;;;;;;;;;;5117550;28;20095;-62
2024/02/01 03:52:34;;;;;;;34.93;8.80;;;;;;;;;;5116024;28;20256;-64
2024/02/01 03:55:00;;;;;;;41.10;7.50;;;;;;;;;;5120752;28;20314;-62
2024/02/01 03:57:26;;;;;;;28.35;7.30;;;;;;;;;;5122781;28;20036;-62
2024/02/01 03:59:52;;;;;;;32.07;6.93;;;;;;;;;;5116406;28;20040;-62
2024/02/01 04:02:17;;;;;;;40.42;8.00;;;;;;;;;;5119427;28;20028;-62
2024/02/01 04:04:45;;;;;;;24.25;7.03;;;;;;;;;;5121918;28;20065;-62
2024/02/01 04:07:16;;;;;;;48.37;8.23;;;;;;;;;;5125494;28;20034;-62
2024/02/01 04:09:43;;;;;;;43.17;8.00;;;;;;;;;;5114695;28;20253;-62
2024/02/01 04:12:09;;;;;;;35.30;7.70;;;;;;;;;;5115720;28;20264;-63
2024/02/01 04:14:35;;;;;;;39.22;5.25;;;;;;;;;;5119327;28;20264;-63
2024/02/01 04:17:01;;;;;;;39.53;5.87;;;;;;;;;;5116184;28;20073;-62
2024/02/01 04:19:26;;;;;;;31.60;5.72;;;;;;;;;;5115104;28;20032;-62
2024/02/01 04:21:52;;;;;;;35.53;5.30;;;;;;;;;;5117902;28;20089;-61
2024/02/01 04:24:17;;;;;;;39.53;6.50;;;;;;;;;;5115177;28;20271;-62
2024/02/01 04:26:43;;;;;;;39.70;5.40;;;;;;;;;;5123577;28;20280;-62
2024/02/01 04:29:11;;;;;;;46.75;7.50;;;;;;;;;;5127055;28;20028;-62
2024/02/01 04:31:37;;;;;;;43.57;6.27;;;;;;;;;;5115014;28;20020;-61
2024/02/01 04:34:02;;;;;;;41.17;5.63;;;;;;;;;;5115187;28;20263;-61
2024/02/01 04:36:28;;;;;;;41.63;5.18;;;;;;;;;;5116871;28;20380;-61
2024/02/01 04:38:54;;;;;;;39.28;6.22;;;;;;;;;;5114589;28;20044;-62
2024/02/01 04:41:19;;;;;;;35.47;5.25;;;;;;;;;;5110755;28;20043;-61
2024/02/01 04:43:45;;;;;;;35.17;4.40;;;;;;;;;;5111503;28;20094;-61
2024/02/01 04:46:10;;;;;;;40.97;5.63;;;;;;;;;;5110508;28;20122;-62
2024/02/01 04:48:36;;;;;;;28.23;5.13;;;;;;;;;;5111971;28;20027;-62
2024/02/01 04:51:01;;;;;;;24.50;4.63;;;;;;;;;;5111406;28;20028;-61
2024/02/01 04:53:26;;;;;;;49.00;5.30;;;;;;;;;;5112186;28;20048;-62
2024/02/01 04:55:52;;;;;;;38.00;5.23;;;;;;;;;;5109828;28;20055;-61
2024/02/01 04:58:18;;;;;;;38.77;5.40;;;;;;;;;;5111860;28;20031;-61
2024/02/01 05:00:44;;;;;;;53.53;5.68;;;;;;;;;;5111046;28;20032;-62
2024/02/01 05:03:10;;;;;;;27.07;5.73;;;;;;;;;;5111746;28;20028;-62
2024/02/01 05:05:36;;;;;;;42.10;4.83;;;;;;;;;;5117576;28;20336;-61
2024/02/01 05:08:01;;;;;;;32.25;5.72;;;;;;;;;;5112441;28;20023;-62
2024/02/01 05:10:27;;;;;;;49.55;5.05;;;;;;;;;;5112925;28;20046;-62
2024/02/01 05:12:55;;;;;;;31.30;4.73;;;;;;;;;;5114702;28;20043;-62
2024/02/01 05:15:21;;;;;;;39.63;8.85;;;;;;;;;;5125353;28;20038;-62
2024/02/01 05:17:46;;;;;;;37.03;5.53;;;;;;;;;;5121153;28;20095;-61
2024/02/01 05:20:12;;;;;;;33.23;5.67;;;;;;;;;;5121631;28;20277;-62
2024/02/01 05:22:38;;;;;;;32.58;4.60;;;;;;;;;;5118739;28;20039;-62
2024/02/01 05:25:18;;;;;;;42.40;5.30;;;;;;;;;;5118484;28;20062;-62
2024/02/01 05:27:45;;;;;;;54.72;7.43;;;;;;;;;;5109550;28;20012;-61
2024/02/01 05:30:11;;;;;;;34.90;4.68;;;;;;;;;;5118513;28;20039;-61
2024/02/01 05:32:48;;;;;;;51.72;5.30;;;;;;;;;;5129111;28;20012;-62
2024/02/01 05:35:14;;;;;;;47.33;4.95;;;;;;;;;;5118236;28;20024;-61
2024/02/01 05:37:46;;;;;;;37.15;5.20;;;;;;;;;;5116945;28;20349;-61
2024/02/01 05:40:16;;;;;;;40.22;4.57;;;;;;;;;;5114862;28;20079;-61
2024/02/01 05:42:45;;;;;;;39.33;5.47;;;;;;;;;;5119677;28;20019;-61
2024/02/01 05:45:12;;;;;;;39.05;5.63;;;;;;;;;;5114248;28;20035;-61
2024/02/01 05:47:37;;;;;;;32.65;6.15;;;;;;;;;;5113753;28;20036;-61
2024/02/01 05:50:04;;;;;;;45.83;5.30;;;;;;;;;;5116615;28;20102;-61
2024/02/01 05:52:30;;;;;;;47.38;5.63;;;;;;;;;;5117373;28;20046;-61
2024/02/01 05:54:55;;;;;;;43.30;5.07;;;;;;;;;;5112132;28;20064;-61
2024/02/01 05:57:20;;;;;;;36.87;4.40;;;;;;;;;;5114606;28;20256;-62
2024/02/01 05:59:46;;;;;;;32.63;6.10;;;;;;;;;;5114555;28;20035;-61
2024/02/01 06:02:11;;;;;;;39.23;5.33;;;;;;;;;;5112935;28;20024;-61
2024/02/01 06:04:37;;;;;;;37.40;5.97;;;;;;;;;;5113184;28;20036;-62
2024/02/01 06:07:04;;;;;;;40.97;4.30;;;;;;;;;;5120404;28;20020;-61
2024/02/01 06:09:30;;;;;;;47.30;6.10;;;;;;;;;;5116366;28;20439;-61
2024/02/01 06:11:55;;;;;;;31.73;5.37;;;;;;;;;;5111355;28;20031;-61
2024/02/01 06:14:20;;;;;;;39.87;5.23;;;;;;;;;;5123342;28;20055;-61
2024/02/01 06:16:46;;;;;;;31.77;5.20;;;;;;;;;;5116837;28;20272;-62
2024/02/01 06:19:11;;;;;;;56.47;5.23;;;;;;;;;;5122960;28;20030;-61
2024/02/01 06:21:37;;;;;;;48.17;6.40;;;;;;;;;;5116676;28;20252;-62
2024/02/01 06:24:04;;;;;;;46.20;4.70;;;;;;;;;;5110415;28;20267;-61
2024/02/01 06:26:29;;;;;;;39.38;5.07;;;;;;;;;;5119240;28;20031;-61
2024/02/01 06:28:57;;;;;;;48.60;7.90;;;;;;;;;;5124070;28;20028;-61
2024/02/01 06:31:26;;;;;;;40.05;4.70;;;;;;;;;;5106231;28;20032;-62
2024/02/01 06:33:52;;;;;;;50.63;6.75;;;;;;;;;;5116980;28;20115;-60
2024/02/01 06:36:19;;;;;;;48.85;5.25;;;;;;;;;;5113751;28;20031;-61
2024/02/01 06:44:31;;;;;;;53.67;5.97;;;;;;;;;;5101570;28;20099;-63
2024/02/01 06:52:13;;;;;;;61.38;7.80;;;;;;;;;;5111358;28;20099;-61
2024/02/01 06:54:39;;;;;;;55.58;8.32;;;;;;;;;;5111166;28;20032;-61
2024/02/01 06:57:13;;;;;;;59.17;6.93;;;;;;;;;;5112327;28;20096;-61
2024/02/01 07:00:16;;;;;;;43.40;7.93;;;;;;;;;;5110549;28;20089;-61
2024/02/01 07:02:47;;;;;;;70.93;10.98;;;;;;;;;;5111126;28;20036;-61
2024/02/01 07:05:25;;;;;;;59.47;9.85;;;;;;;;;;5115956;28;20243;-61
2024/02/01 07:08:01;;;;;;;49.50;7.22;;;;;;;;;;5114995;28;20032;-61
2024/02/01 07:10:32;;;;;;;37.10;5.07;;;;;;;;;;5122415;28;20024;-61
2024/02/01 07:13:07;;;;;;;53.53;7.85;;;;;;;;;;5112713;28;20057;-61
2024/02/01 07:15:33;;;;;;;49.15;5.35;;;;;;;;;;5113321;28;20051;-61
2024/02/01 07:17:59;;;;;;;45.33;5.00;;;;;;;;;;5115039;28;20038;-61
2024/02/01 07:20:35;;;;;;;36.45;5.00;;;;;;;;;;5120036;28;20056;-61
2024/02/01 07:23:04;;;;;;;42.50;4.82;;;;;;;;;;5121841;28;20039;-61
2024/02/01 07:25:37;;;;;;;39.00;4.97;;;;;;;;;;5114915;28;20032;-61
2024/02/01 07:58:14;;;;;;;39.10;6.05;;;;;;;;;;5111211;28;20116;-61
2024/02/01 08:00:48;;;;;;;48.15;5.47;;;;;;;;;;5115606;28;20031;-61
2024/02/01 08:08:39;;;;;;;46.42;5.68;;;;;;;;;;5113375;28;20035;-60
2024/02/01 08:11:05;;;;;;;27.33;4.85;;;;;;;;;;5106743;28;20028;-60
2024/02/01 08:13:31;;;;;;;31.55;5.13;;;;;;;;;;5112815;28;20012;-60
2024/02/01 08:15:56;;;;;;;34.55;4.32;;;;;;;;;;5113468;28;20040;-61
2024/02/01 08:18:23;;;;;;;56.42;6.82;;;;;;;;;;5118173;28;20024;-60
2024/02/01 08:20:49;;;;;;;34.80;5.38;;;;;;;;;;5114478;28;20059;-60
2024/02/01 08:23:19;;;;;;;40.77;5.53;;;;;;;;;;5115225;28;20032;-60
2024/02/01 08:25:45;;;;;;;28.92;6.78;;;;;;;;;;5106069;28;20277;-61
2024/02/01 08:28:10;;;;;;;26.00;4.55;;;;;;;;;;5106848;28;20043;-62
2024/02/01 08:30:36;;;;;;;35.23;4.90;;;;;;;;;;5113087;28;20020;-60
2024/02/01 08:33:04;;;;;;;39.17;5.17;;;;;;;;;;5107028;28;20032;-60
2024/02/01 08:35:33;;;;;;;37.63;4.75;;;;;;;;;;5105437;28;20114;-61
2024/02/01 08:38:05;;;;;;;20.30;5.10;;;;;;;;;;5108769;28;20050;-60
2024/02/01 08:40:31;;;;;;;33.97;5.32;;;;;;;;;;5110521;28;20051;-61
2024/02/01 08:43:00;;;;;;;40.37;4.77;;;;;;;;;;5107648;28;20028;-61
2024/02/01 08:45:29;;;;;;;49.78;6.70;;;;;;;;;;5109724;28;20028;-59
2024/02/01 08:48:02;;;;;;;52.85;4.93;;;;;;;;;;5103913;28;20052;-60
2024/02/01 08:50:46;;;;;;;40.45;7.63;;;;;;;;;;5119272;28;20035;-60
2024/02/01 08:53:14;;;;;;;41.83;4.70;;;;;;;;;;5104917;28;20029;-60
2024/02/01 08:55:41;;;;;;;30.35;4.68;;;;;;;;;;5104816;28;20031;-61
2024/02/01 08:58:09;;;;;;;24.67;5.03;;;;;;;;;;5109664;28;20036;-61
2024/02/01 09:00:36;;;;;;;25.90;4.13;;;;;;;;;;5104678;28;20028;-61
2024/02/01 09:03:29;;;;;;;36.05;4.53;;;;;;;;;;5111977;28;20044;-61
2024/02/01 09:05:51;;;;;;;40.80;5.32;;;;;;;;;;5111509;28;20028;-59
2024/02/01 09:08:36;;;;;;;25.17;4.57;;;;;;;;;;5111369;28;20078;-60
2024/02/01 09:11:09;;;;;;;36.60;5.22;;;;;;;;;;5114250;28;20261;-60
2024/02/01 09:13:35;;;;;;;38.80;6.10;;;;;;;;;;5114090;28;20060;-61
2024/02/01 09:16:00;;;;;;;26.08;4.28;;;;;;;;;;5118887;28;20275;-62
2024/02/01 09:18:27;;;;;;;23.63;5.57;;;;;;;;;;5106854;28;20159;-61
2024/02/01 09:20:53;;;;;;;33.88;6.35;;;;;;;;;;5112062;28;20024;-61
2024/02/01 09:23:18;;;;;;;32.53;5.30;;;;;;;;;;5113710;28;20042;-60
2024/02/01 09:25:44;;;;;;;33.47;6.73;;;;;;;;;;5113635;28;20281;-61
2024/02/01 09:28:13;;;;;;;29.03;4.90;;;;;;;;;;5114597;28;20261;-60
2024/02/01 09:30:45;;;;;;;46.83;5.57;;;;;;;;;;5118201;28;20079;-60
2024/02/01 09:33:10;;;;;;;25.97;6.00;;;;;;;;;;5114456;28;20360;-61
2024/02/01 09:35:36;;;;;;;29.67;5.05;;;;;;;;;;5121828;28;20260;-60
2024/02/01 09:38:01;;;;;;;28.87;4.20;;;;;;;;;;5106389;28;20024;-60
2024/02/01 09:40:26;;;;;;;25.07;3.77;;;;;;;;;;5110988;28;20032;-60
2024/02/01 09:42:52;;;;;;;28.20;4.20;;;;;;;;;;5110524;28;20036;-60
2024/02/01 09:45:19;;;;;;;27.00;4.20;;;;;;;;;;5110096;28;20031;-61
2024/02/01 09:47:46;;;;;;;29.87;4.37;;;;;;;;;;5109084;28;20028;-62
2024/02/01 09:50:12;;;;;;;25.30;4.67;;;;;;;;;;5109761;28;20099;-63
2024/02/01 09:52:48;;;;;;;31.20;5.97;;;;;;;;;;5110420;28;20032;-61
2024/02/01 09:55:19;;;;;;;21.33;4.57;;;;;;;;;;5110309;28;20035;-60
2024/02/01 09:57:48;;;;;;;28.33;4.27;;;;;;;;;;5110562;28;20039;-61
2024/02/01 10:00:17;;;;;;;24.47;4.30;;;;;;;;;;5112042;28;20028;-61
2024/02/01 10:02:44;;;;;;;28.53;5.27;;;;;;;;;;5112204;28;20036;-61
2024/02/01 10:05:09;;;;;;;21.87;3.77;;;;;;;;;;5114410;28;20020;-61
2024/02/01 10:07:35;;;;;;;19.80;4.03;;;;;;;;;;5116363;28;20039;-61
2024/02/01 10:10:03;;;;;;;25.50;4.65;;;;;;;;;;5117011;28;20249;-61
2024/02/01 10:12:29;;;;;;;31.13;5.07;;;;;;;;;;5111237;28;20118;-60
2024/02/01 10:14:58;;;;;;;22.90;5.07;;;;;;;;;;5112378;28;20032;-61
2024/02/01 10:17:24;;;;;;;22.80;3.90;;;;;;;;;;5120459;28;20038;-61
2024/02/01 10:19:49;;;;;;;;;;;;;;;;;;5118250;28;20043;-60
2024/02/01 10:22:15;;;;;;;28.03;4.57;;;;;;;;;;5117164;28;19995;-60
2024/02/01 10:24:51;;;;;;;;;;;;;;;;;;5117392;28;20036;-60
2024/02/01 10:27:21;;;;;;;23.40;5.17;;;;;;;;;;5115609;28;19975;-61
2024/02/01 10:29:47;;;;;;;23.03;4.30;;;;;;;;;;5117058;28;20035;-60
2024/02/01 10:32:13;;;;;;;;;;;;;;;;;;5117516;28;20024;-61
2024/02/01 10:34:43;;;;;;;24.23;4.80;;;;;;;;;;5116971;28;19919;-61
2024/02/01 10:37:11;;;;;;;22.67;4.53;;;;;;;;;;5112455;28;20053;-60
2024/02/01 10:39:38;;;;;;;24.17;4.80;;;;;;;;;;5110858;28;20077;-60
2024/02/01 10:42:08;;;;;;;22.07;4.57;;;;;;;;;;5112167;28;20063;-61
2024/02/01 10:44:35;;;;;;;25.57;4.23;;;;;;;;;;5109507;28;20080;-62
2024/02/01 10:47:02;;;;;;;22.00;4.30;;;;;;;;;;5114438;28;20051;-61
2024/02/01 10:49:28;;;;;;;23.43;4.00;;;;;;;;;;5112947;28;20054;-60
2024/02/01 10:51:55;;;;;;;23.93;5.27;;;;;;;;;;5112638;28;20051;-60
2024/02/01 10:54:21;;;;;;;26.47;4.20;;;;;;;;;;5112751;28;20016;-60
2024/02/01 10:56:47;;;;;;;22.20;4.27;;;;;;;;;;5113905;28;20039;-61
2024/02/01 10:59:15;;;;;;;25.90;4.95;;;;;;;;;;5112604;28;20032;-61
2024/02/01 11:01:41;;;;;;;20.83;4.10;;;;;;;;;;5113173;28;20043;-61
2024/02/01 11:04:08;;;;;;;24.27;5.28;;;;;;;;;;5115561;28;20063;-61
2024/02/01 11:06:34;;;;;;;22.73;5.67;;;;;;;;;;5114315;28;20046;-61
2024/02/01 11:09:18;;;;;;;23.98;3.78;;;;;;;;;;5118998;28;20024;-61
2024/02/01 11:11:46;;;;;;;25.43;4.23;;;;;;;;;;5115767;28;20055;-60
2024/02/01 11:14:13;;;;;;;24.17;4.70;;;;;;;;;;5115676;28;20024;-61
2024/02/01 11:16:41;;;;;;;22.47;4.50;;;;;;;;;;5115799;28;20028;-61
2024/02/01 11:19:10;;;;;;;22.90;5.43;;;;;;;;;;5125636;28;20031;-61
2024/02/01 11:21:44;;;;;;;31.13;5.23;;;;;;;;;;5115893;28;20031;-61
2024/02/01 11:24:10;;;;;;;21.20;4.30;;;;;;;;;;5116353;28;20109;-60
2024/02/01 11:26:40;;;;;;;;;;;;;;;;;;5116120;28;20032;-61
2024/02/01 11:29:06;;;;;;;16.33;4.37;;;;;;;;;;5112767;28;19963;-61
2024/02/01 11:31:32;;;;;;;17.10;4.20;;;;;;;;;;5109663;28;20087;-60
2024/02/01 11:34:05;;;;;;;;;;;;;;;;;;5116958;28;20028;-60
2024/02/01 11:36:32;;;;;;;24.63;3.87;;;;;;;;;;5118322;28;20127;-61
2024/02/01 11:38:58;;;;;;;32.63;4.37;;;;;;;;;;5122339;28;20031;-61
2024/02/01 11:41:23;;;;;;;29.02;5.75;;;;;;;;;;5120343;28;20104;-62
2024/02/01 11:43:49;;;;;;;33.08;5.07;;;;;;;;;;5115264;28;20032;-60
2024/02/01 11:46:14;;;;;;;24.80;4.43;;;;;;;;;;5115299;28;20032;-61
2024/02/01 11:48:42;;;;;;;34.83;4.60;;;;;;;;;;5118109;28;20096;-60
2024/02/01 11:51:08;;;;;;;24.27;4.47;;;;;;;;;;5119760;28;20043;-61
2024/02/01 11:53:34;;;;;;;;;;;;;;;;;;5115740;28;20024;-60
2024/02/01 11:56:00;;;;;;;26.65;5.15;;;;;;;;;;5102262;28;19961;-61
2024/02/01 11:58:31;;;;;;;22.40;4.80;;;;;;;;;;5114040;28;20032;-60
2024/02/01 12:00:57;;;;;;;22.93;4.07;;;;;;;;;;5106380;28;20036;-61
2024/02/01 12:03:29;;;;;;;27.30;4.40;;;;;;;;;;5115556;28;20083;-60
2024/02/01 12:05:55;;;;;;;19.92;4.00;;;;;;;;;;5112544;28;20058;-60
2024/02/01 12:08:21;;;;;;;24.83;4.47;;;;;;;;;;5120170;28;20054;-60
2024/02/01 12:10:49;;;;;;;18.08;3.92;;;;;;;;;;5117034;28;20080;-61
2024/02/01 12:13:16;;;;;;;21.17;4.38;;;;;;;;;;5114755;28;20027;-61
2024/02/01 12:15:42;;;;;;;28.00;4.73;;;;;;;;;;5114641;28;20053;-61
2024/02/01 12:18:11;;;;;;;27.00;4.33;;;;;;;;;;5114666;28;20027;-60
2024/02/01 12:20:41;;;;;;;30.03;4.97;;;;;;;;;;5112388;28;20104;-60
2024/02/01 12:23:06;;;;;;;23.30;4.43;;;;;;;;;;5115141;28;20028;-60
2024/02/01 12:25:32;;;;;;;17.48;3.80;;;;;;;;;;5110291;28;20036;-60
2024/02/01 12:27:58;;;;;;;21.20;3.97;;;;;;;;;;5110942;28;20032;-61
2024/02/01 12:30:26;;;;;;;;;;;;;;;;;;5127414;28;20034;-61
2024/02/01 12:32:52;;;;;;;16.30;3.25;;;;;;;;;;5115036;28;19939;-60
2024/02/01 12:35:21;;;;;;;22.45;3.60;;;;;;;;;;5121478;28;20024;-60
2024/02/01 12:37:46;;;;;;;19.55;4.13;;;;;;;;;;5116060;28;20043;-61
2024/02/01 12:40:12;;;;;;;;;;;;;;;;;;5124331;28;20051;-62
2024/02/01 12:42:41;;;;;;;26.75;4.13;;;;;;;;;;5114974;28;19915;-61
2024/02/01 12:45:08;;;;;;;18.27;4.55;;;;;;;;;;5114798;28;20028;-61
2024/02/01 12:47:37;;;;;;;17.38;4.05;;;;;;;;;;5117776;28;20035;-62
2024/02/01 12:50:04;;;;;;;20.50;5.28;;;;;;;;;;5114742;28;20055;-62
2024/02/01 12:52:29;;;;;;;17.40;3.72;;;;;;;;;;5107653;28;20028;-66
2024/02/01 12:54:59;;;;;;;19.60;3.67;;;;;;;;;;5114434;28;20104;-61
2024/02/01 12:57:26;;;;;;;20.55;4.13;;;;;;;;;;5115131;28;20020;-61
2024/02/01 12:59:53;;;;;;;17.65;3.88;;;;;;;;;;5115516;28;20072;-62
2024/02/01 13:02:19;;;;;;;18.90;4.00;;;;;;;;;;5114208;28;20043;-61
2024/02/01 13:04:44;;;;;;;19.67;4.15;;;;;;;;;;5114214;28;20058;-61
2024/02/01 13:07:11;;;;;;;18.20;3.40;;;;;;;;;;5114453;28;20031;-62
2024/02/01 13:09:38;;;;;;;15.13;4.10;;;;;;;;;;5120338;28;20031;-62
2024/02/01 13:12:18;;;;;;;17.27;3.85;;;;;;;;;;5120878;28;20043;-62
2024/02/01 13:14:57;;;;;;;15.82;3.95;;;;;;;;;;5103205;28;20032;-62
2024/02/01 13:17:24;;;;;;;21.77;4.95;;;;;;;;;;5114369;28;20024;-61
2024/02/01 13:19:49;;;;;;;18.30;4.68;;;;;;;;;;5121474;28;20087;-61
2024/02/01 13:22:14;;;;;;;;;;;;;;;;;;5116924;28;20020;-62
2024/02/01 13:24:40;;;;;;;18.10;3.47;;;;;;;;;;5114139;28;19915;-61
2024/02/01 13:27:11;;;;;;;13.40;3.65;;;;;;;;;;5114001;28;20029;-61
2024/02/01 13:29:37;;;;;;;15.50;3.77;;;;;;;;;;5121696;28;20047;-62
2024/02/01 13:32:07;;;;;;;14.85;3.38;;;;;;;;;;5115922;28;20028;-61
2024/02/01 13:34:37;;;;;;;20.15;3.92;;;;;;;;;;5114301;28;20054;-61
2024/02/01 13:37:05;;;;;;;24.13;4.07;;;;;;;;;;5113921;28;20024;-61
2024/02/01 13:39:33;;;;;;;24.60;4.60;;;;;;;;;;5115383;28;20459;-61
2024/02/01 13:41:59;;;;;;;12.77;3.53;;;;;;;;;;5115992;28;20067;-61
2024/02/01 13:44:25;;;;;;;23.80;3.53;;;;;;;;;;5117923;28;20028;-60
2024/02/01 13:46:50;;;;;;;24.83;4.53;;;;;;;;;;5104350;28;20043;-61
2024/02/01 13:49:16;;;;;;;17.63;3.70;;;;;;;;;;5119508;28;20038;-61
2024/02/01 13:51:41;;;;;;;22.80;3.97;;;;;;;;;;5117416;28;20028;-60
2024/02/01 13:54:07;;;;;;;18.88;4.57;;;;;;;;;;5118123;28;20024;-61
2024/02/01 13:56:32;;;;;;;24.77;4.13;;;;;;;;;;5117654;28;20088;-60
2024/02/01 13:58:58;;;;;;;23.83;4.32;;;;;;;;;;5122516;28;20047;-62
2024/02/01 14:01:23;;;;;;;26.02;4.65;;;;;;;;;;5130579;28;20028;-60
2024/02/01 14:03:49;;;;;;;30.92;5.15;;;;;;;;;;5117412;28;20051;-60
2024/02/01 14:06:14;;;;;;;23.13;5.20;;;;;;;;;;5106648;28;20040;-60
2024/02/01 14:08:41;;;;;;;18.00;3.80;;;;;;;;;;5115040;28;20119;-61
2024/02/01 14:11:07;;;;;;;24.40;4.03;;;;;;;;;;5122674;28;20032;-61
2024/02/01 14:13:33;;;;;;;18.45;3.33;;;;;;;;;;5117056;28;20035;-60
2024/02/01 14:15:58;;;;;;;24.33;5.27;;;;;;;;;;5113578;28;20061;-61
2024/02/01 14:18:24;;;;;;;16.05;3.85;;;;;;;;;;5117540;28;20039;-61
2024/02/01 14:20:50;;;;;;;23.73;4.10;;;;;;;;;;5123512;28;20062;-61
2024/02/01 14:23:17;;;;;;;16.23;4.10;;;;;;;;;;5117228;28;20032;-61
2024/02/01 14:25:43;;;;;;;16.63;3.67;;;;;;;;;;5116806;28;20048;-61
2024/02/01 14:28:09;;;;;;;18.05;3.88;;;;;;;;;;5117167;28;20058;-61
2024/02/01 14:30:34;;;;;;;19.70;3.83;;;;;;;;;;5119787;28;20106;-60
2024/02/01 14:33:02;;;;;;;18.10;3.05;;;;;;;;;;5116959;28;20044;-60
2024/02/01 14:35:28;;;;;;;23.53;3.83;;;;;;;;;;5116421;28;20032;-60
2024/02/01 14:37:55;;;;;;;20.33;2.97;;;;;;;;;;5120877;28;20065;-61
2024/02/01 14:40:21;;;;;;;16.33;3.13;;;;;;;;;;5127279;28;20039;-60
2024/02/01 14:42:46;;;;;;;13.77;3.63;;;;;;;;;;5120644;28;20126;-60
2024/02/01 14:45:12;;;;;;;16.65;4.00;;;;;;;;;;5117270;28;20028;-61
2024/02/01 14:47:37;;;;;;;23.45;3.65;;;;;;;;;;5120178;28;20058;-60
2024/02/01 14:50:04;;;;;;;20.50;4.13;;;;;;;;;;5121446;28;20091;-60
2024/02/01 14:52:30;;;;;;;14.67;3.50;;;;;;;;;;5115607;28;20032;-61
2024/02/01 14:54:56;;;;;;;17.83;3.75;;;;;;;;;;5103715;28;20047;-60
2024/02/01 14:57:22;;;;;;;14.20;3.03;;;;;;;;;;5115895;28;20069;-61
2024/02/01 14:59:47;;;;;;;27.55;3.40;;;;;;;;;;5103146;28;20032;-61
2024/02/01 15:02:13;;;;;;;18.58;3.75;;;;;;;;;;5116752;28;20103;-61
2024/02/01 15:04:39;;;;;;;19.45;3.42;;;;;;;;;;5116681;28;20028;-60
2024/02/01 15:07:04;;;;;;;21.48;3.90;;;;;;;;;;5128900;28;20035;-59
2024/02/01 15:09:31;;;;;;;18.75;4.25;;;;;;;;;;5117772;28;20020;-59
2024/02/01 15:11:59;;;;;;;21.20;3.70;;;;;;;;;;5122717;28;20054;-60
2024/02/01 15:14:26;;;;;;;21.90;4.67;;;;;;;;;;5104119;28;20016;-61